Time,TemperatureF,DewpointF,PressureIn,WindDirection,WindDirectionDegrees,WindSpeedMPH,WindSpeedGustMPH,Humidity,HourlyPrecipIn,Conditions,Clouds,dailyrainin,SoftwareType,DateUTC
2013-03-19 00:02:00,20.0,14.0,-100.00,NNE,25,7.0,13.0,76,0.00,,,-99.99,,2013-03-19 05:02:00,
2013-03-19 00:12:00,20.0,13.0,-100.00,NNE,15,7.0,13.0,76,0.00,,,-99.99,,2013-03-19 05:12:00,
2013-03-19 00:22:00,19.0,13.0,-100.00,North,5,9.0,12.0,76,0.00,,,-99.99,,2013-03-19 05:22:00,
2013-03-19 00:32:00,19.0,13.0,-100.00,North,5,7.0,9.0,77,0.00,,,-99.99,,2013-03-19 05:32:00,
2013-03-19 00:42:00,19.0,13.0,-100.00,North,5,7.0,10.0,77,0.00,,,-99.99,,2013-03-19 05:42:00,
2013-03-19 00:52:00,19.0,13.0,-100.00,NNE,20,6.0,11.0,77,0.00,,,-99.99,,2013-03-19 05:52:00,
2013-03-19 01:02:00,19.0,13.0,-100.00,North,10,4.0,9.0,77,0.00,,,-99.99,,2013-03-19 06:02:00,
2013-03-19 01:12:00,19.0,13.0,-100.00,North,10,4.0,9.0,77,0.00,,,-99.99,,2013-03-19 06:12:00,
2013-03-19 01:22:00,18.0,13.0,-100.00,North,-999,-999.0,-999.0,77,0.00,,,-99.99,,2013-03-19 06:22:00,
2013-03-19 01:32:00,19.0,13.0,-100.00,NNW,335,6.0,12.0,76,0.00,,,-99.99,,2013-03-19 06:32:00,
2013-03-19 01:42:00,19.0,13.0,-100.00,NW,325,6.0,12.0,76,0.00,,,-99.99,,2013-03-19 06:42:00,
2013-03-19 01:52:00,18.0,12.0,-100.00,North,0,6.0,11.0,76,0.00,,,-99.99,,2013-03-19 06:52:00,
2013-03-19 02:02:00,18.0,12.0,-100.00,North,0,6.0,9.0,77,0.00,,,-99.99,,2013-03-19 07:02:00,
2013-03-19 02:12:00,18.0,12.0,-100.00,NNW,345,4.0,7.0,76,0.00,,,-99.99,,2013-03-19 07:12:00,
2013-03-19 02:21:00,18.0,12.0,-100.00,NNW,345,4.0,7.0,76,0.00,,,-99.99,,2013-03-19 07:21:00,
2013-03-19 02:32:00,18.0,12.0,-100.00,NNW,340,5.0,9.0,76,0.00,,,-99.99,,2013-03-19 07:32:00,
2013-03-19 02:42:00,18.0,12.0,-100.00,NNW,340,5.0,9.0,76,0.00,,,-99.99,,2013-03-19 07:42:00,
2013-03-19 02:52:00,18.0,12.0,-100.00,North,0,6.0,9.0,77,0.00,,,-99.99,,2013-03-19 07:52:00,
2013-03-19 03:02:00,18.0,12.0,-100.00,North,0,6.0,9.0,77,0.00,,,-99.99,,2013-03-19 08:02:00,
2013-03-19 03:12:00,18.0,12.0,-100.00,North,5,9.0,12.0,77,0.00,,,-99.99,,2013-03-19 08:12:00,
2013-03-19 03:22:00,18.0,12.0,-100.00,North,0,9.0,12.0,77,0.00,,,-99.99,,2013-03-19 08:22:00,
2013-03-19 03:32:00,18.0,12.0,-100.00,NNE,20,6.0,9.0,79,0.00,,,-99.99,,2013-03-19 08:32:00,
2013-03-19 03:42:00,18.0,12.0,-100.00,NNE,20,6.0,9.0,79,0.00,,,-99.99,,2013-03-19 08:42:00,
2013-03-19 03:52:00,17.0,12.0,-100.00,North,10,4.0,7.0,79,0.00,,,-99.99,,2013-03-19 08:52:00,
2013-03-19 04:02:00,17.0,12.0,-100.00,North,10,4.0,7.0,79,0.00,,,-99.99,,2013-03-19 09:02:00,
2013-03-19 04:12:00,17.0,12.0,-100.00,NNE,20,4.0,6.0,81,0.00,,,-99.99,,2013-03-19 09:12:00,
2013-03-19 04:22:00,17.0,12.0,-100.00,NNE,20,4.0,6.0,81,0.00,,,-99.99,,2013-03-19 09:22:00,
2013-03-19 04:32:00,16.0,12.0,-100.00,North,5,2.0,6.0,82,0.00,,,-99.99,,2013-03-19 09:32:00,
2013-03-19 04:42:00,16.0,12.0,-100.00,NNE,15,3.0,4.0,82,0.00,,,-99.99,,2013-03-19 09:42:00,
2013-03-19 04:52:00,16.0,11.0,-100.00,NNE,15,6.0,6.0,82,0.00,,,-99.99,,2013-03-19 09:52:00,
2013-03-19 05:03:00,16.0,12.0,-100.00,North,10,6.0,7.0,83,0.00,,,-99.99,,2013-03-19 10:03:00,
2013-03-19 05:12:00,16.0,12.0,-100.00,North,10,7.0,8.0,83,0.00,,,-99.99,,2013-03-19 10:12:00,
2013-03-19 05:23:00,17.0,12.0,-100.00,NNE,15,7.0,10.0,83,0.00,,,-99.99,,2013-03-19 10:23:00,
2013-03-19 05:32:00,16.0,12.0,-100.00,North,10,7.0,8.0,84,0.00,,,-99.99,,2013-03-19 10:32:00,
2013-03-19 05:52:00,16.0,12.0,-100.00,NNE,25,8.0,11.0,83,0.00,,,-99.99,,2013-03-19 10:52:00,
2013-03-19 06:02:00,16.0,12.0,-100.00,NNE,25,7.0,10.0,83,0.00,,,-99.99,,2013-03-19 11:02:00,
2013-03-19 06:12:00,16.0,12.0,-100.00,NNE,20,7.0,10.0,83,0.00,,,-99.99,,2013-03-19 11:12:00,
2013-03-19 06:22:00,16.0,12.0,-100.00,NNE,30,6.0,10.0,83,0.00,,,-99.99,,2013-03-19 11:22:00,
2013-03-19 06:32:00,15.0,12.0,-100.00,NNE,25,4.0,7.0,85,0.00,,,-99.99,,2013-03-19 11:32:00,
2013-03-19 06:42:00,15.0,12.0,-100.00,NE,45,4.0,7.0,85,0.00,,,-99.99,,2013-03-19 11:42:00,
2013-03-19 06:52:00,15.0,11.0,-100.00,NE,45,4.0,7.0,84,0.00,,,-99.99,,2013-03-19 11:52:00,
2013-03-19 07:12:00,15.0,11.0,-100.00,NNE,30,4.0,6.0,84,0.00,,,-99.99,,2013-03-19 12:12:00,
2013-03-19 07:22:00,15.0,11.0,-100.00,NE,40,4.0,7.0,84,0.00,,,-99.99,,2013-03-19 12:22:00,
2013-03-19 07:33:00,15.0,11.0,-100.00,NNE,25,3.0,9.0,83,0.00,,,-99.99,,2013-03-19 12:33:00,
2013-03-19 07:42:00,15.0,11.0,-100.00,NNE,25,3.0,9.0,83,0.00,,,-99.99,,2013-03-19 12:42:00,
2013-03-19 07:52:00,15.0,11.0,-100.00,North,350,4.0,6.0,83,0.00,,,-99.99,,2013-03-19 12:52:00,
2013-03-19 08:12:00,16.0,12.0,-100.00,North,0,2.0,4.0,82,0.00,,,-99.99,,2013-03-19 13:12:00,
2013-03-19 08:22:00,17.0,12.0,-100.00,NW,320,1.0,4.0,81,0.00,,,-99.99,,2013-03-19 13:22:00,
2013-03-19 08:32:00,18.0,12.0,-100.00,NNE,30,2.0,4.0,79,0.00,,,-99.99,,2013-03-19 13:32:00,
2013-03-19 08:42:00,17.0,11.0,-100.00,NNE,15,3.0,4.0,77,0.00,,,-99.99,,2013-03-19 13:42:00,
2013-03-19 08:52:00,17.0,11.0,-100.00,NNE,25,5.0,7.0,74,0.00,,,-99.99,,2013-03-19 13:52:00,
2013-03-19 09:02:00,19.0,12.0,-100.00,NNE,20,4.0,7.0,73,0.00,,,-99.99,,2013-03-19 14:02:00,
2013-03-19 09:12:00,18.0,11.0,-100.00,NE,45,5.0,9.0,72,0.00,,,-99.99,,2013-03-19 14:12:00,
2013-03-19 09:22:00,20.0,12.0,-100.00,NNE,30,3.0,7.0,71,0.00,,,-99.99,,2013-03-19 14:22:00,
2013-03-19 09:32:00,20.0,12.0,-100.00,NE,45,5.0,7.0,68,0.00,,,-99.99,,2013-03-19 14:32:00,
2013-03-19 09:42:00,20.0,12.0,-100.00,NNE,20,5.0,10.0,69,0.00,,,-99.99,,2013-03-19 14:42:00,
2013-03-19 09:52:00,23.0,13.0,-100.00,ENE,60,4.0,7.0,65,0.00,,,-99.99,,2013-03-19 14:52:00,
2013-03-19 10:02:00,23.0,13.0,-100.00,NE,50,6.0,9.0,64,0.00,,,-99.99,,2013-03-19 15:02:00,
2013-03-19 10:12:00,22.0,11.0,-100.00,NE,50,9.0,12.0,63,0.00,,,-99.99,,2013-03-19 15:12:00,
2013-03-19 10:22:00,23.0,12.0,-100.00,ENE,60,7.0,14.0,62,0.00,,,-99.99,,2013-03-19 15:22:00,
2013-03-19 10:33:00,24.0,12.0,-100.00,ENE,70,7.0,11.0,61,0.00,,,-99.99,,2013-03-19 15:33:00,
2013-03-19 10:43:00,24.0,13.0,-100.00,ENE,70,6.0,10.0,61,0.00,,,-99.99,,2013-03-19 15:43:00,
2013-03-19 10:53:00,25.0,12.0,-100.00,NNW,340,2.0,8.0,56,0.00,,,-99.99,,2013-03-19 15:53:00,
2013-03-19 11:13:00,24.0,12.0,-100.00,ENE,65,2.0,7.0,58,0.00,,,-99.99,,2013-03-19 16:13:00,
2013-03-19 11:23:00,25.0,12.0,-100.00,North,10,4.0,6.0,56,0.00,,,-99.99,,2013-03-19 16:23:00,
2013-03-19 11:34:00,26.0,13.0,-100.00,NNE,25,2.0,7.0,56,0.00,,,-99.99,,2013-03-19 16:34:00,
2013-03-19 11:43:00,28.0,14.0,-100.00,NNE,30,0.0,6.0,55,0.00,,,-99.99,,2013-03-19 16:43:00,
2013-03-19 11:53:00,27.0,13.0,-100.00,WNW,295,1.0,7.0,54,0.00,,,-99.99,,2013-03-19 16:53:00,
2013-03-19 12:03:00,27.0,13.0,-100.00,North,-999,-999.0,-999.0,54,0.00,,,-99.99,,2013-03-19 17:03:00,
2013-03-19 12:13:00,28.0,13.0,-100.00,ENE,70,2.0,7.0,53,0.00,,,-99.99,,2013-03-19 17:13:00,
2013-03-19 12:34:00,28.0,13.0,-100.00,NNW,330,2.0,9.0,53,0.00,,,-99.99,,2013-03-19 17:34:00,
2013-03-19 12:43:00,28.0,13.0,-100.00,NNW,330,2.0,9.0,53,0.00,,,-99.99,,2013-03-19 17:43:00,
2013-03-19 12:52:00,30.0,14.0,-100.00,NNE,25,2.0,7.0,51,0.00,,,-99.99,,2013-03-19 17:52:00,
2013-03-19 13:02:00,31.0,15.0,-100.00,West,275,0.0,7.0,50,0.00,,,-99.99,,2013-03-19 18:02:00,
2013-03-19 13:13:00,32.0,16.0,-100.00,West,265,4.0,8.0,50,0.00,,,-99.99,,2013-03-19 18:13:00,
2013-03-19 13:23:00,33.0,17.0,-100.00,West,270,3.0,6.0,49,0.00,,,-99.99,,2013-03-19 18:23:00,
2013-03-19 13:33:00,33.0,16.0,-100.00,West,275,1.0,6.0,49,0.00,,,-99.99,,2013-03-19 18:33:00,
2013-03-19 13:52:00,35.0,18.0,-100.00,WNW,295,4.0,11.0,48,0.00,,,-99.99,,2013-03-19 18:52:00,
2013-03-19 14:02:00,35.0,18.0,-100.00,WNW,295,4.0,11.0,48,0.00,,,-99.99,,2013-03-19 19:02:00,
2013-03-19 14:12:00,34.0,18.0,-100.00,WNW,290,4.0,10.0,49,0.00,,,-99.99,,2013-03-19 19:12:00,
2013-03-19 14:22:00,34.0,18.0,-100.00,WNW,290,4.0,10.0,49,0.00,,,-99.99,,2013-03-19 19:22:00,
2013-03-19 14:32:00,35.0,18.0,-100.00,NW,315,7.0,14.0,49,0.00,,,-99.99,,2013-03-19 19:32:00,
2013-03-19 14:42:00,34.0,17.0,-100.00,NW,315,6.0,11.0,50,0.00,,,-99.99,,2013-03-19 19:42:00,
2013-03-19 14:52:00,35.0,19.0,-100.00,North,10,4.0,12.0,51,0.00,,,-99.99,,2013-03-19 19:52:00,
2013-03-19 15:02:00,35.0,19.0,-100.00,NNW,340,4.0,10.0,50,0.00,,,-99.99,,2013-03-19 20:02:00,
2013-03-19 15:12:00,37.0,20.0,-100.00,WNW,290,7.0,15.0,50,0.00,,,-99.99,,2013-03-19 20:12:00,
2013-03-19 15:22:00,36.0,20.0,-100.00,NW,315,5.0,11.0,50,0.00,,,-99.99,,2013-03-19 20:22:00,
2013-03-19 15:32:00,36.0,20.0,-100.00,NW,320,9.0,11.0,50,0.00,,,-99.99,,2013-03-19 20:32:00,
2013-03-19 15:42:00,37.0,20.0,-100.00,NNE,20,4.0,11.0,50,0.00,,,-99.99,,2013-03-19 20:42:00,
2013-03-19 15:52:00,39.0,22.0,-100.00,North,10,6.0,9.0,49,0.00,,,-99.99,,2013-03-19 20:52:00,
2013-03-19 16:02:00,38.0,22.0,-100.00,NNE,15,9.0,12.0,52,0.00,,,-99.99,,2013-03-19 21:02:00,
2013-03-19 16:12:00,38.0,22.0,-100.00,NNE,15,7.0,12.0,52,0.00,,,-99.99,,2013-03-19 21:12:00,
2013-03-19 16:22:00,38.0,22.0,-100.00,NNE,25,11.0,13.0,51,0.00,,,-99.99,,2013-03-19 21:22:00,
2013-03-19 16:33:00,38.0,22.0,-100.00,NNE,20,9.0,16.0,51,0.00,,,-99.99,,2013-03-19 21:33:00,
2013-03-19 16:42:00,38.0,22.0,-100.00,North,5,11.0,15.0,51,0.00,,,-99.99,,2013-03-19 21:42:00,
2013-03-19 16:52:00,39.0,22.0,-100.00,NE,45,9.0,13.0,50,0.00,,,-99.99,,2013-03-19 21:52:00,
2013-03-19 17:03:00,38.0,22.0,-100.00,NNE,20,13.0,17.0,52,0.00,,,-99.99,,2013-03-19 22:03:00,
2013-03-19 17:12:00,38.0,22.0,-100.00,North,10,14.0,18.0,52,0.00,,,-99.99,,2013-03-19 22:12:00,
2013-03-19 17:23:00,38.0,22.0,-100.00,North,10,14.0,18.0,52,0.00,,,-99.99,,2013-03-19 22:23:00,
2013-03-19 17:33:00,37.0,22.0,-100.00,North,10,13.0,19.0,54,0.00,,,-99.99,,2013-03-19 22:33:00,
2013-03-19 17:43:00,37.0,22.0,-100.00,North,10,13.0,19.0,54,0.00,,,-99.99,,2013-03-19 22:43:00,
2013-03-19 17:52:00,36.0,22.0,-100.00,NNE,20,19.0,23.0,54,0.00,,,-99.99,,2013-03-19 22:52:00,
2013-03-19 18:12:00,36.0,22.0,-100.00,NNE,15,19.0,24.0,55,0.00,,,-99.99,,2013-03-19 23:12:00,
2013-03-19 18:22:00,36.0,22.0,-100.00,North,-999,-999.0,-999.0,56,-99.99,,,-99.99,,2013-03-19 23:22:00,
2013-03-19 18:32:00,36.0,22.0,-100.00,NNE,25,15.0,22.0,56,0.00,,,-99.99,,2013-03-19 23:32:00,
2013-03-19 18:42:00,36.0,22.0,-100.00,NNE,25,15.0,22.0,56,0.00,,,-99.99,,2013-03-19 23:42:00,
2013-03-19 18:52:00,34.0,22.0,-100.00,NE,45,12.0,24.0,59,0.00,,,-99.99,,2013-03-19 23:52:00,
2013-03-19 19:02:00,34.0,22.0,-100.00,NE,50,11.0,21.0,59,0.00,,,-99.99,,2013-03-20 00:02:00,
2013-03-19 19:12:00,33.0,22.0,-100.00,North,-999,-999.0,-999.0,61,-99.99,,,-99.99,,2013-03-20 00:12:00,
2013-03-19 19:22:00,33.0,22.0,-100.00,NE,40,11.0,19.0,62,0.00,,,-99.99,,2013-03-20 00:22:00,
2013-03-19 19:33:00,32.0,22.0,-100.00,NNE,30,11.0,19.0,64,0.00,,,-99.99,,2013-03-20 00:33:00,
2013-03-19 19:42:00,32.0,21.0,-100.00,NE,40,16.0,22.0,64,0.00,,,-99.99,,2013-03-20 00:42:00,
2013-03-19 19:52:00,31.0,21.0,-100.00,NE,35,16.0,24.0,65,0.00,,,-99.99,,2013-03-20 00:52:00,
2013-03-19 20:03:00,30.0,21.0,-100.00,NNE,25,11.0,21.0,67,0.00,,,-99.99,,2013-03-20 01:03:00,
2013-03-19 20:12:00,30.0,21.0,-100.00,NE,35,11.0,22.0,68,0.00,,,-99.99,,2013-03-20 01:12:00,
2013-03-19 20:32:00,29.0,21.0,-100.00,NE,45,14.0,22.0,70,0.00,,,-99.99,,2013-03-20 01:32:00,
2013-03-19 20:42:00,29.0,20.0,-100.00,NNE,25,21.0,26.0,68,0.00,,,-99.99,,2013-03-20 01:42:00,
2013-03-19 20:52:00,28.0,19.0,-100.00,NNE,25,15.0,26.0,69,0.00,,,-99.99,,2013-03-20 01:52:00,
2013-03-19 21:02:00,27.0,20.0,-100.00,NNE,25,9.0,19.0,72,0.00,,,-99.99,,2013-03-20 02:02:00,
2013-03-19 21:12:00,27.0,20.0,-100.00,NE,35,12.0,19.0,73,0.00,,,-99.99,,2013-03-20 02:12:00,
2013-03-19 21:22:00,26.0,20.0,-100.00,NE,40,11.0,18.0,75,0.00,,,-99.99,,2013-03-20 02:22:00,
2013-03-19 21:32:00,26.0,19.0,-100.00,NNE,25,14.0,23.0,75,0.00,,,-99.99,,2013-03-20 02:32:00,
2013-03-19 21:42:00,26.0,19.0,-100.00,NNE,25,14.0,23.0,75,0.00,,,-99.99,,2013-03-20 02:42:00,
2013-03-19 21:52:00,24.0,18.0,-100.00,NE,40,15.0,24.0,76,0.00,,,-99.99,,2013-03-20 02:52:00,
2013-03-19 22:02:00,24.0,18.0,-100.00,NNE,30,13.0,26.0,76,0.00,,,-99.99,,2013-03-20 03:02:00,
2013-03-19 22:12:00,24.0,17.0,-100.00,NNE,25,17.0,27.0,75,0.00,,,-99.99,,2013-03-20 03:12:00,
2013-03-19 22:22:00,23.0,17.0,-100.00,NNE,25,19.0,26.0,76,0.00,,,-99.99,,2013-03-20 03:22:00,
2013-03-19 22:33:00,23.0,16.0,-100.00,NE,40,16.0,25.0,75,0.00,,,-99.99,,2013-03-20 03:33:00,
2013-03-19 22:42:00,22.0,16.0,-100.00,NE,40,12.0,24.0,75,0.00,,,-99.99,,2013-03-20 03:42:00,
2013-03-19 22:53:00,22.0,16.0,-100.00,NNE,20,11.0,19.0,76,0.00,,,-99.99,,2013-03-20 03:53:00,
2013-03-19 23:02:00,22.0,17.0,-100.00,NNE,20,14.0,17.0,80,0.00,,,-99.99,,2013-03-20 04:02:00,
2013-03-19 23:12:00,22.0,17.0,-100.00,NNE,20,14.0,17.0,80,0.00,,,-99.99,,2013-03-20 04:12:00,
2013-03-19 23:22:00,21.0,15.0,-100.00,NNE,25,13.0,24.0,78,0.00,,,-99.99,,2013-03-20 04:22:00,
2013-03-19 23:32:00,21.0,15.0,-100.00,NNE,30,12.0,24.0,78,0.00,,,-99.99,,2013-03-20 04:32:00,
2013-03-19 23:43:00,21.0,15.0,-100.00,NE,35,13.0,21.0,78,0.00,,,-99.99,,2013-03-20 04:43:00,
2013-03-19 23:52:00,21.0,16.0,-100.00,NNE,20,16.0,21.0,79,0.00,,,-99.99,,2013-03-20 04:52:00,